createdAt,value
2017-10-08T00:02:51.268Z,14.91
2017-10-08T00:07:53.211Z,14.86
2017-10-08T00:12:55.149Z,14.98
2017-10-08T00:17:57.111Z,15.04
2017-10-08T00:22:59.022Z,15.05
2017-10-08T00:28:00.949Z,14.96
2017-10-08T00:33:02.915Z,14.97
2017-10-08T00:38:05.209Z,14.93
2017-10-08T00:43:07.211Z,14.98
2017-10-08T00:48:10.885Z,15.04
2017-10-08T00:53:12.908Z,15.06
2017-10-08T00:58:14.918Z,15.13
2017-10-08T01:03:17.457Z,15.20
2017-10-08T01:08:19.671Z,15.26
2017-10-08T01:13:22.302Z,15.17
2017-10-08T01:18:24.343Z,15.22
2017-10-08T01:23:26.343Z,15.13
2017-10-08T01:28:28.384Z,15.17
2017-10-08T01:33:30.462Z,15.19
2017-10-08T01:38:32.477Z,15.10
2017-10-08T01:43:34.552Z,15.17
2017-10-08T01:48:36.522Z,15.25
2017-10-08T01:53:39.339Z,15.23
2017-10-08T01:58:41.336Z,15.24
2017-10-08T02:03:44.128Z,15.23
2017-10-08T02:08:46.115Z,15.31
2017-10-08T02:13:48.072Z,15.37
2017-10-08T02:18:50.002Z,15.30
2017-10-08T02:23:51.903Z,15.37
2017-10-08T02:28:54.573Z,15.40
2017-10-08T02:33:57.257Z,15.36
2017-10-08T02:38:59.168Z,15.42
2017-10-08T02:44:01.087Z,15.52
2017-10-08T02:49:04.016Z,15.42
2017-10-08T02:54:06.011Z,15.36
2017-10-08T02:59:07.996Z,15.53
2017-10-08T03:04:10.063Z,15.43
2017-10-08T03:09:12.003Z,15.43
2017-10-08T03:14:13.990Z,15.54
2017-10-08T03:19:15.919Z,15.58
2017-10-08T03:24:17.919Z,15.43
2017-10-08T03:29:20.602Z,15.45
2017-10-08T03:34:23.288Z,15.44
2017-10-08T03:39:25.235Z,15.47
2017-10-08T03:44:28.313Z,15.44
2017-10-08T03:49:31.180Z,15.42
2017-10-08T03:54:33.175Z,15.47
2017-10-08T03:59:35.123Z,15.41
2017-10-08T04:04:37.043Z,15.28
2017-10-08T04:09:39.000Z,15.31
2017-10-08T04:14:40.934Z,15.31
2017-10-08T04:19:42.907Z,15.21
2017-10-08T04:24:44.835Z,15.15
2017-10-08T04:29:46.724Z,15.17
2017-10-08T04:34:49.479Z,15.24
2017-10-08T04:39:51.412Z,15.25
2017-10-08T04:44:53.341Z,15.17
2017-10-08T04:49:55.353Z,15.16
2017-10-08T04:54:57.291Z,15.23
2017-10-08T05:05:03.084Z,15.12
2017-10-08T05:10:05.189Z,15.14
2017-10-08T05:15:07.259Z,15.19
2017-10-08T05:20:09.198Z,15.27
2017-10-08T05:25:11.115Z,15.26
2017-10-08T05:30:20.663Z,15.24
2017-10-08T05:35:23.401Z,15.15
2017-10-08T05:40:26.063Z,15.25
2017-10-08T05:45:29.144Z,15.28
2017-10-08T05:50:31.820Z,15.13
2017-10-08T05:55:33.723Z,15.05
2017-10-08T06:00:35.695Z,15.02
2017-10-08T06:05:38.461Z,15.02
2017-10-08T06:10:41.155Z,15.18
2017-10-08T06:15:43.488Z,15.02
2017-10-08T06:20:45.455Z,14.86
2017-10-08T06:25:47.835Z,14.86
2017-10-08T06:30:50.226Z,14.93
2017-10-08T06:35:52.955Z,15.02
2017-10-08T06:40:55.020Z,15.07
2017-10-08T06:45:56.941Z,15.03
2017-10-08T06:50:58.879Z,15.18
2017-10-08T06:56:00.810Z,15.21
2017-10-08T07:01:02.839Z,15.42
2017-10-08T07:06:05.516Z,15.54
2017-10-08T07:11:08.160Z,15.61
2017-10-08T07:16:10.063Z,15.59
2017-10-08T07:21:12.173Z,15.68
2017-10-08T07:26:14.855Z,15.58
2017-10-08T07:31:25.808Z,15.69
2017-10-08T07:36:27.859Z,16.05
2017-10-08T07:41:30.085Z,16.01
2017-10-08T07:46:32.162Z,15.87
2017-10-08T07:51:34.125Z,15.95
2017-10-08T07:56:36.088Z,15.82
2017-10-08T08:01:38.819Z,15.79
2017-10-08T08:06:41.295Z,15.81
2017-10-08T08:11:43.571Z,16.06
2017-10-08T08:16:46.983Z,16.17
2017-10-08T08:21:48.968Z,16.35
2017-10-08T08:26:50.888Z,16.13
2017-10-08T08:31:52.804Z,16.08
2017-10-08T08:36:55.971Z,16.13
2017-10-08T08:41:58.945Z,16.17
2017-10-08T08:47:00.922Z,16.22
2017-10-08T08:52:02.884Z,16.22
2017-10-08T08:57:04.841Z,16.62
2017-10-08T09:02:06.823Z,16.72
2017-10-08T09:07:08.885Z,17.28
2017-10-08T09:12:11.552Z,17.36
2017-10-08T09:17:14.231Z,17.55
2017-10-08T09:22:16.889Z,17.32
2017-10-08T09:27:19.633Z,17.16
2017-10-08T09:32:21.751Z,17.57
2017-10-08T09:37:23.682Z,17.86
2017-10-08T09:42:26.796Z,18.02
2017-10-08T09:47:29.847Z,17.62
2017-10-08T09:52:31.817Z,17.55
2017-10-08T09:57:33.788Z,17.62
2017-10-08T10:02:35.879Z,17.50
2017-10-08T10:07:37.825Z,17.78
2017-10-08T10:12:39.724Z,17.79
2017-10-08T10:17:50.969Z,17.71
2017-10-08T10:22:55.026Z,18.13
2017-10-08T10:27:58.759Z,18.42
2017-10-08T10:33:01.616Z,18.28
2017-10-08T10:38:05.113Z,17.81
2017-10-08T10:43:11.945Z,17.48
2017-10-08T10:48:14.062Z,17.34
2017-10-08T10:53:16.638Z,17.80
2017-10-08T10:58:20.618Z,18.52
2017-10-08T11:03:22.737Z,18.98
2017-10-08T11:08:24.730Z,18.83
2017-10-08T11:13:27.848Z,18.24
2017-10-08T11:18:29.879Z,18.22
2017-10-08T11:23:31.804Z,18.20
2017-10-08T11:28:35.363Z,17.98
2017-10-08T11:33:38.066Z,18.02
2017-10-08T11:38:40.087Z,17.82
2017-10-08T11:43:42.136Z,17.61
2017-10-08T11:48:44.096Z,17.75
2017-10-08T11:53:46.010Z,18.09
2017-10-08T11:58:48.667Z,18.56
2017-10-08T12:03:50.650Z,18.92
2017-10-08T12:08:52.602Z,19.06
2017-10-08T12:13:54.557Z,19.37
2017-10-08T12:18:56.489Z,18.97
2017-10-08T12:24:03.308Z,19.03
2017-10-08T12:29:05.563Z,19.16
2017-10-08T12:34:07.476Z,19.15
2017-10-08T12:39:09.376Z,18.79
2017-10-08T12:44:11.431Z,18.76
2017-10-08T12:49:14.061Z,18.75
2017-10-08T12:54:15.991Z,18.58
2017-10-08T12:59:17.896Z,18.38
2017-10-08T13:04:20.603Z,18.37
2017-10-08T13:09:22.595Z,18.68
2017-10-08T13:14:25.259Z,18.53
2017-10-08T13:19:28.059Z,18.52
2017-10-08T13:24:30.024Z,17.85
2017-10-08T13:29:32.004Z,16.84
2017-10-08T13:34:34.994Z,16.62
2017-10-08T13:39:36.976Z,16.60
2017-10-08T13:44:38.895Z,16.67
2017-10-08T13:49:40.859Z,17.02
2017-10-08T13:54:42.779Z,17.07
2017-10-08T13:59:45.749Z,16.64
2017-10-08T14:04:48.858Z,16.73
2017-10-08T14:09:50.979Z,16.96
2017-10-08T14:14:54.020Z,17.00
2017-10-08T14:19:59.049Z,17.17
2017-10-08T14:25:01.459Z,17.17
2017-10-08T14:30:03.759Z,16.97
2017-10-08T14:35:06.155Z,17.10
2017-10-08T14:40:09.842Z,17.22
2017-10-08T14:45:12.995Z,17.37
2017-10-08T14:50:16.730Z,17.33
2017-10-08T14:55:18.786Z,17.18
2017-10-08T15:00:21.096Z,17.13
2017-10-08T15:05:23.802Z,17.18
2017-10-08T15:10:26.174Z,17.45
2017-10-08T15:15:29.314Z,17.76
2017-10-08T15:20:31.252Z,17.97
2017-10-08T15:25:33.292Z,17.91
2017-10-08T15:30:35.244Z,17.70
2017-10-08T15:35:37.192Z,17.63
2017-10-08T15:40:39.111Z,17.53
2017-10-08T15:45:41.829Z,17.22
2017-10-08T15:50:43.755Z,17.44
2017-10-08T15:55:45.720Z,17.40
2017-10-08T16:00:48.739Z,17.25
2017-10-08T16:05:51.437Z,17.06
2017-10-08T16:10:53.519Z,16.82
2017-10-08T16:15:55.834Z,16.51
2017-10-08T16:20:57.744Z,16.43
2017-10-08T16:25:59.719Z,16.23
2017-10-08T16:31:01.665Z,15.91
2017-10-08T16:36:04.396Z,15.81
2017-10-08T16:41:06.374Z,15.83
2017-10-08T16:46:08.344Z,15.65
2017-10-08T16:51:10.281Z,15.62
2017-10-08T16:56:12.242Z,15.55
2017-10-08T17:01:14.220Z,15.42
2017-10-08T17:06:16.153Z,15.35
2017-10-08T17:11:18.380Z,15.23
2017-10-08T17:16:20.323Z,15.09
2017-10-08T17:21:22.235Z,15.03
2017-10-08T17:31:39.960Z,14.83
2017-10-08T17:36:41.907Z,14.75
2017-10-08T17:41:43.843Z,14.60
2017-10-08T17:46:47.136Z,14.59
2017-10-08T17:51:49.973Z,14.47
2017-10-08T17:56:52.377Z,14.39
2017-10-08T18:01:55.624Z,14.29
2017-10-08T18:06:58.708Z,14.22
2017-10-08T18:12:02.129Z,14.10
2017-10-08T18:17:05.961Z,13.95
2017-10-08T18:22:08.049Z,13.97
2017-10-08T18:27:11.250Z,13.96
2017-10-08T18:32:13.334Z,13.87
2017-10-08T18:37:16.135Z,13.79
2017-10-08T18:42:19.381Z,13.69
2017-10-08T18:47:23.749Z,13.67
2017-10-08T18:52:30.358Z,13.63
2017-10-08T18:57:33.188Z,13.51
2017-10-08T19:02:35.299Z,13.45
2017-10-08T19:07:37.256Z,13.38
2017-10-08T19:12:39.248Z,13.33
2017-10-08T19:17:41.523Z,13.20
2017-10-08T19:22:43.876Z,13.24
2017-10-08T19:27:47.996Z,13.18
2017-10-08T19:32:51.350Z,13.24
2017-10-08T19:37:55.016Z,13.21
2017-10-08T19:43:00.081Z,13.12
2017-10-08T19:48:02.989Z,13.02
2017-10-08T19:53:04.976Z,13.03
2017-10-08T19:58:07.971Z,13.02
2017-10-08T20:03:10.329Z,12.99
2017-10-08T20:08:12.554Z,12.88
2017-10-08T20:13:14.708Z,12.84
2017-10-08T20:18:16.998Z,12.76
2017-10-08T20:23:18.915Z,12.80
2017-10-08T20:28:21.321Z,12.87
2017-10-08T20:33:24.225Z,13.06
2017-10-08T20:38:26.460Z,13.25
2017-10-08T20:43:29.455Z,13.36
2017-10-08T20:48:31.388Z,13.42
2017-10-08T20:53:33.288Z,13.45
2017-10-08T20:58:35.342Z,13.46
2017-10-08T21:03:38.258Z,13.60
2017-10-08T21:08:40.220Z,13.70
2017-10-08T21:13:42.160Z,13.65
2017-10-08T21:18:44.126Z,13.64
2017-10-08T21:23:46.083Z,13.59
2017-10-08T21:28:48.049Z,13.69
2017-10-08T21:33:50.098Z,13.68
2017-10-08T21:38:52.021Z,13.66
2017-10-08T21:43:53.917Z,13.58
2017-10-08T21:48:57.229Z,13.55
2017-10-08T21:53:59.179Z,13.61
2017-10-08T21:59:01.109Z,13.75
2017-10-08T22:04:03.141Z,13.66
2017-10-08T22:09:05.843Z,13.44
2017-10-08T22:14:07.785Z,13.38
2017-10-08T22:19:09.727Z,13.49
2017-10-08T22:24:11.664Z,13.54
2017-10-08T22:29:13.619Z,13.44
2017-10-08T22:34:16.244Z,13.45
2017-10-08T22:39:19.616Z,13.46
2017-10-08T22:44:22.242Z,13.54
2017-10-08T22:49:24.785Z,13.63
2017-10-08T22:54:27.581Z,13.73
2017-10-08T22:59:29.866Z,13.71
2017-10-08T23:04:32.602Z,13.58
2017-10-08T23:09:41.948Z,13.63
2017-10-08T23:14:44.569Z,13.60
2017-10-08T23:19:46.929Z,13.61
2017-10-08T23:24:49.087Z,13.69
2017-10-08T23:29:51.159Z,13.68
2017-10-08T23:34:53.779Z,13.66
2017-10-08T23:39:55.714Z,13.75
2017-10-08T23:44:58.362Z,13.73
2017-10-08T23:50:01.099Z,13.68
2017-10-08T23:55:03.087Z,13.75
